sensor_id;sensor_type;location;lat;lon;timestamp;pressure;altitude;pressure_sealevel;temperature;humidity
35489;BME280;21602;55.670;37.578;2022-08-11T00:03:10;100052.47;;;18.72;54.45
35489;BME280;21602;55.670;37.578;2022-08-11T00:05:49;100049.47;;;18.68;54.67
35489;BME280;21602;55.670;37.578;2022-08-11T00:08:30;100052.16;;;18.63;54.96
35489;BME280;21602;55.670;37.578;2022-08-11T00:11:04;100056.75;;;18.63;54.92
35489;BME280;21602;55.670;37.578;2022-08-11T00:13:43;100050.78;;;18.61;55.34
35489;BME280;21602;55.670;37.578;2022-08-11T00:16:22;100053.75;;;18.54;55.39
35489;BME280;21602;55.670;37.578;2022-08-11T00:18:51;100049.16;;;18.50;55.64
35489;BME280;21602;55.670;37.578;2022-08-11T00:21:20;100056.75;;;18.48;55.94
35489;BME280;21602;55.670;37.578;2022-08-11T00:23:54;100061.34;;;18.47;56.11
35489;BME280;21602;55.670;37.578;2022-08-11T00:26:22;100062.69;;;18.45;56.39
35489;BME280;21602;55.670;37.578;2022-08-11T00:28:49;100056.72;;;18.42;56.33
35489;BME280;21602;55.670;37.578;2022-08-11T00:31:28;100058.34;;;18.43;56.79
35489;BME280;21602;55.670;37.578;2022-08-11T00:33:55;100059.97;;;18.45;56.69
35489;BME280;21602;55.670;37.578;2022-08-11T00:36:25;100064.84;;;18.42;57.01
35489;BME280;21602;55.670;37.578;2022-08-11T00:38:52;100066.16;;;18.35;57.21
35489;BME280;21602;55.670;37.578;2022-08-11T00:41:43;100064.00;;;18.37;57.47
35489;BME280;21602;55.670;37.578;2022-08-11T00:50:09;100063.19;;;18.36;57.84
35489;BME280;21602;55.670;37.578;2022-08-11T01:09:23;100081.25;;;18.21;58.79
35489;BME280;21602;55.670;37.578;2022-08-11T01:21:04;100088.00;;;18.13;59.92
35489;BME280;21602;55.670;37.578;2022-08-11T01:40:44;100099.88;;;18.07;60.27
35489;BME280;21602;55.670;37.578;2022-08-11T01:49:06;100089.84;;;17.97;60.64
35489;BME280;21602;55.670;37.578;2022-08-11T01:54:30;100101.16;;;17.94;60.84
35489;BME280;21602;55.670;37.578;2022-08-11T01:57:19;100106.81;;;17.92;60.90
35489;BME280;21602;55.670;37.578;2022-08-11T02:00:14;100108.44;;;17.88;61.12
35489;BME280;21602;55.670;37.578;2022-08-11T02:02:57;100114.63;;;17.89;61.11
35489;BME280;21602;55.670;37.578;2022-08-11T02:05:53;100104.13;;;17.92;61.17
35489;BME280;21602;55.670;37.578;2022-08-11T02:08:48;100106.31;;;17.96;61.20
35489;BME280;21602;55.670;37.578;2022-08-11T02:11:27;100111.16;;;17.94;61.29
35489;BME280;21602;55.670;37.578;2022-08-11T02:14:15;100106.81;;;17.92;61.43
35489;BME280;21602;55.670;37.578;2022-08-11T02:22:58;100111.75;;;18.06;61.35
35489;BME280;21602;55.670;37.578;2022-08-11T02:26:04;100111.75;;;18.06;61.36
35489;BME280;21602;55.670;37.578;2022-08-11T02:51:11;100129.94;;;18.26;61.37
35489;BME280;21602;55.670;37.578;2022-08-11T02:53:48;100134.00;;;18.23;61.48
35489;BME280;21602;55.670;37.578;2022-08-11T02:59:40;100133.41;;;18.21;62.08
35489;BME280;21602;55.670;37.578;2022-08-11T03:02:32;100134.00;;;18.28;61.72
35489;BME280;21602;55.670;37.578;2022-08-11T03:10:40;100148.38;;;18.44;61.41
35489;BME280;21602;55.670;37.578;2022-08-11T03:13:22;100144.84;;;18.43;61.55
35489;BME280;21602;55.670;37.578;2022-08-11T03:16:28;100146.19;;;18.36;61.41
35489;BME280;21602;55.670;37.578;2022-08-11T03:22:18;100145.03;;;18.22;61.78
35489;BME280;21602;55.670;37.578;2022-08-11T03:38:58;100153.19;;;18.32;62.36
35489;BME280;21602;55.670;37.578;2022-08-11T03:41:41;100152.13;;;18.33;62.28
35489;BME280;21602;55.670;37.578;2022-08-11T03:47:05;100156.78;;;18.48;62.07
35489;BME280;21602;55.670;37.578;2022-08-11T04:01:01;100148.50;;;18.95;61.91
35489;BME280;21602;55.670;37.578;2022-08-11T04:30:17;100147.59;;;19.97;60.43
35489;BME280;21602;55.670;37.578;2022-08-11T05:13:01;100159.84;;;19.74;59.77
35489;BME280;21602;55.670;37.578;2022-08-11T05:15:52;100166.66;;;19.71;60.40
35489;BME280;21602;55.670;37.578;2022-08-11T05:18:46;100163.34;;;19.94;60.29
35489;BME280;21602;55.670;37.578;2022-08-11T05:21:33;100159.22;;;20.02;60.01
35489;BME280;21602;55.670;37.578;2022-08-11T05:24:41;100165.69;;;20.16;59.35
35489;BME280;21602;55.670;37.578;2022-08-11T05:27:36;100170.53;;;20.25;59.93
35489;BME280;21602;55.670;37.578;2022-08-11T05:30:26;100159.69;;;20.30;59.26
35489;BME280;21602;55.670;37.578;2022-08-11T05:33:29;100152.06;;;20.32;59.81
35489;BME280;21602;55.670;37.578;2022-08-11T05:36:39;100163.41;;;20.49;58.92
35489;BME280;21602;55.670;37.578;2022-08-11T05:39:15;100159.78;;;20.64;58.02
35489;BME280;21602;55.670;37.578;2022-08-11T05:42:00;100161.34;;;20.80;58.67
35489;BME280;21602;55.670;37.578;2022-08-11T05:44:47;100160.06;;;21.07;57.26
35489;BME280;21602;55.670;37.578;2022-08-11T05:47:33;100153.91;;;20.96;57.56
35489;BME280;21602;55.670;37.578;2022-08-11T05:50:21;100165.34;;;20.88;56.89
35489;BME280;21602;55.670;37.578;2022-08-11T05:53:09;100160.28;;;20.76;57.31
35489;BME280;21602;55.670;37.578;2022-08-11T05:55:54;100163.50;;;20.78;57.93
35489;BME280;21602;55.670;37.578;2022-08-11T05:58:42;100165.38;;;20.83;57.53
35489;BME280;21602;55.670;37.578;2022-08-11T06:01:21;100162.38;;;20.89;57.15
35489;BME280;21602;55.670;37.578;2022-08-11T06:03:50;100166.81;;;20.75;57.00
35489;BME280;21602;55.670;37.578;2022-08-11T06:06:36;100168.94;;;20.78;57.70
35489;BME280;21602;55.670;37.578;2022-08-11T06:09:05;100171.56;;;20.88;57.52
35489;BME280;21602;55.670;37.578;2022-08-11T06:11:37;100170.34;;;21.10;56.48
35489;BME280;21602;55.670;37.578;2022-08-11T06:14:06;100163.78;;;21.16;56.36
35489;BME280;21602;55.670;37.578;2022-08-11T06:16:32;100156.41;;;21.21;56.69
35489;BME280;21602;55.670;37.578;2022-08-11T06:19:00;100152.56;;;21.33;56.62
35489;BME280;21602;55.670;37.578;2022-08-11T06:21:25;100160.84;;;21.46;56.36
35489;BME280;21602;55.670;37.578;2022-08-11T06:23:52;100166.69;;;21.59;56.27
35489;BME280;21602;55.670;37.578;2022-08-11T06:26:19;100163.81;;;21.74;55.95
35489;BME280;21602;55.670;37.578;2022-08-11T06:28:46;100167.94;;;21.71;55.34
35489;BME280;21602;55.670;37.578;2022-08-11T06:31:16;100172.63;;;21.66;55.52
35489;BME280;21602;55.670;37.578;2022-08-11T06:49:06;100170.38;;;21.44;55.15
35489;BME280;21602;55.670;37.578;2022-08-11T06:51:53;100161.94;;;21.45;54.81
35489;BME280;21602;55.670;37.578;2022-08-11T06:54:22;100165.31;;;21.61;54.99
35489;BME280;21602;55.670;37.578;2022-08-11T06:56:48;100164.31;;;21.81;54.67
35489;BME280;21602;55.670;37.578;2022-08-11T06:59:34;100169.69;;;21.86;53.62
35489;BME280;21602;55.670;37.578;2022-08-11T07:02:24;100170.03;;;22.04;54.33
35489;BME280;21602;55.670;37.578;2022-08-11T07:05:00;100177.75;;;22.20;52.95
35489;BME280;21602;55.670;37.578;2022-08-11T07:13:37;100174.28;;;22.15;52.84
35489;BME280;21602;55.670;37.578;2022-08-11T07:16:27;100168.47;;;22.21;52.45
35489;BME280;21602;55.670;37.578;2022-08-11T07:19:02;100170.81;;;22.33;52.36
35489;BME280;21602;55.670;37.578;2022-08-11T07:21:47;100172.56;;;22.43;52.27
35489;BME280;21602;55.670;37.578;2022-08-11T07:24:39;100166.84;;;22.44;51.48
35489;BME280;21602;55.670;37.578;2022-08-11T07:27:29;100169.56;;;22.44;51.14
35489;BME280;21602;55.670;37.578;2022-08-11T07:30:16;100159.63;;;22.54;51.70
35489;BME280;21602;55.670;37.578;2022-08-11T07:32:53;100158.91;;;22.67;51.33
35489;BME280;21602;55.670;37.578;2022-08-11T07:35:21;100162.59;;;22.76;51.05
35489;BME280;21602;55.670;37.578;2022-08-11T07:38:00;100172.19;;;22.92;50.69
35489;BME280;21602;55.670;37.578;2022-08-11T07:40:27;100165.31;;;22.76;50.17
35489;BME280;21602;55.670;37.578;2022-08-11T07:42:54;100164.66;;;22.84;50.18
35489;BME280;21602;55.670;37.578;2022-08-11T07:45:22;100159.41;;;22.88;50.12
35489;BME280;21602;55.670;37.578;2022-08-11T07:48:08;100160.78;;;22.90;50.26
35489;BME280;21602;55.670;37.578;2022-08-11T07:50:53;100164.00;;;22.92;50.07
35489;BME280;21602;55.670;37.578;2022-08-11T07:53:38;100171.22;;;23.02;50.07
35489;BME280;21602;55.670;37.578;2022-08-11T07:56:05;100174.34;;;23.28;49.28
35489;BME280;21602;55.670;37.578;2022-08-11T07:58:36;100173.78;;;23.45;48.27
35489;BME280;21602;55.670;37.578;2022-08-11T08:01:23;100165.50;;;23.36;48.34
35489;BME280;21602;55.670;37.578;2022-08-11T08:04:10;100166.09;;;23.33;48.98
35489;BME280;21602;55.670;37.578;2022-08-11T08:06:56;100167.69;;;23.34;49.03
35489;BME280;21602;55.670;37.578;2022-08-11T08:09:41;100164.88;;;23.39;48.54
35489;BME280;21602;55.670;37.578;2022-08-11T08:12:26;100171.34;;;23.43;48.77
35489;BME280;21602;55.670;37.578;2022-08-11T08:15:13;100164.28;;;23.42;49.14
35489;BME280;21602;55.670;37.578;2022-08-11T08:18:00;100153.66;;;23.60;49.05
35489;BME280;21602;55.670;37.578;2022-08-11T08:20:29;100161.16;;;23.82;48.42
35489;BME280;21602;55.670;37.578;2022-08-11T08:22:57;100160.47;;;24.04;47.96
35489;BME280;21602;55.670;37.578;2022-08-11T08:25:28;100162.66;;;24.15;47.13
35489;BME280;21602;55.670;37.578;2022-08-11T08:27:56;100164.19;;;23.80;47.33
35489;BME280;21602;55.670;37.578;2022-08-11T08:30:24;100167.34;;;23.55;47.94
35489;BME280;21602;55.670;37.578;2022-08-11T08:33:16;100164.66;;;23.68;48.09
35489;BME280;21602;55.670;37.578;2022-08-11T08:35:43;100162.31;;;23.62;47.17
35489;BME280;21602;55.670;37.578;2022-08-11T08:38:11;100157.91;;;23.66;46.94
35489;BME280;21602;55.670;37.578;2022-08-11T08:40:41;100151.25;;;23.72;47.30
35489;BME280;21602;55.670;37.578;2022-08-11T08:43:10;100155.38;;;23.83;47.38
35489;BME280;21602;55.670;37.578;2022-08-11T08:45:38;100157.22;;;24.01;46.71
35489;BME280;21602;55.670;37.578;2022-08-11T08:48:11;100155.72;;;24.23;45.84
35489;BME280;21602;55.670;37.578;2022-08-11T08:51:04;100162.56;;;24.20;44.85
35489;BME280;21602;55.670;37.578;2022-08-11T08:53:51;100155.69;;;23.82;44.68
35489;BME280;21602;55.670;37.578;2022-08-11T08:56:19;100161.69;;;23.84;44.71
35489;BME280;21602;55.670;37.578;2022-08-11T08:58:49;100155.28;;;24.02;45.04
35489;BME280;21602;55.670;37.578;2022-08-11T09:01:17;100152.88;;;24.28;44.71
35489;BME280;21602;55.670;37.578;2022-08-11T09:03:45;100149.44;;;24.50;44.40
35489;BME280;21602;55.670;37.578;2022-08-11T09:06:13;100148.41;;;24.60;43.46
35489;BME280;21602;55.670;37.578;2022-08-11T09:08:41;100141.47;;;24.76;43.17
35489;BME280;21602;55.670;37.578;2022-08-11T09:11:09;100144.69;;;25.00;43.56
35489;BME280;21602;55.670;37.578;2022-08-11T09:13:54;100138.75;;;25.21;42.85
35489;BME280;21602;55.670;37.578;2022-08-11T09:16:21;100149.66;;;25.43;43.03
35489;BME280;21602;55.670;37.578;2022-08-11T09:18:48;100142.38;;;25.61;42.69
35489;BME280;21602;55.670;37.578;2022-08-11T09:21:15;100143.94;;;25.53;41.52
35489;BME280;21602;55.670;37.578;2022-08-11T09:23:45;100138.13;;;25.46;42.06
35489;BME280;21602;55.670;37.578;2022-08-11T09:26:31;100142.38;;;25.08;42.89
35489;BME280;21602;55.670;37.578;2022-08-11T09:29:15;100141.34;;;24.81;43.35
35489;BME280;21602;55.670;37.578;2022-08-11T09:31:42;100140.66;;;24.75;43.19
35489;BME280;21602;55.670;37.578;2022-08-11T09:34:13;100141.75;;;24.52;43.21
35489;BME280;21602;55.670;37.578;2022-08-11T09:36:40;100147.09;;;24.16;43.15
35489;BME280;21602;55.670;37.578;2022-08-11T09:39:30;100136.94;;;24.08;43.17
35489;BME280;21602;55.670;37.578;2022-08-11T09:42:15;100135.91;;;24.31;43.79
35489;BME280;21602;55.670;37.578;2022-08-11T09:44:44;100135.47;;;24.51;43.85
35489;BME280;21602;55.670;37.578;2022-08-11T09:47:25;100128.78;;;24.58;42.96
35489;BME280;21602;55.670;37.578;2022-08-11T09:49:55;100134.66;;;24.51;43.26
35489;BME280;21602;55.670;37.578;2022-08-11T09:52:24;100137.63;;;24.41;42.70
35489;BME280;21602;55.670;37.578;2022-08-11T09:54:51;100140.72;;;24.34;42.68
35489;BME280;21602;55.670;37.578;2022-08-11T09:57:21;100135.81;;;24.22;42.25
35489;BME280;21602;55.670;37.578;2022-08-11T10:00:08;100136.50;;;24.28;42.18
35489;BME280;21602;55.670;37.578;2022-08-11T10:02:43;100128.44;;;24.37;42.57
35489;BME280;21602;55.670;37.578;2022-08-11T10:05:10;100134.34;;;24.52;42.26
35489;BME280;21602;55.670;37.578;2022-08-11T10:07:58;100133.31;;;24.62;42.21
35489;BME280;21602;55.670;37.578;2022-08-11T10:10:25;100127.66;;;24.59;42.08
35489;BME280;21602;55.670;37.578;2022-08-11T10:13:00;100123.53;;;24.61;42.36
35489;BME280;21602;55.670;37.578;2022-08-11T10:15:30;100124.28;;;24.75;42.36
35489;BME280;21602;55.670;37.578;2022-08-11T10:18:09;100133.41;;;24.71;42.14
35489;BME280;21602;55.670;37.578;2022-08-11T10:21:00;100121.81;;;24.51;42.39
35489;BME280;21602;55.670;37.578;2022-08-11T10:23:31;100124.28;;;24.39;41.75
35489;BME280;21602;55.670;37.578;2022-08-11T10:26:18;100124.91;;;24.36;42.65
35489;BME280;21602;55.670;37.578;2022-08-11T10:29:24;100133.75;;;24.56;41.65
35489;BME280;21602;55.670;37.578;2022-08-11T10:32:12;100120.97;;;24.87;42.49
35489;BME280;21602;55.670;37.578;2022-08-11T10:34:58;100114.44;;;25.11;41.60
35489;BME280;21602;55.670;37.578;2022-08-11T10:37:26;100113.22;;;25.25;41.72
35489;BME280;21602;55.670;37.578;2022-08-11T10:39:59;100122.34;;;25.43;41.32
35489;BME280;21602;55.670;37.578;2022-08-11T10:42:26;100114.09;;;25.66;40.54
35489;BME280;21602;55.670;37.578;2022-08-11T10:45:10;100113.09;;;25.62;40.08
35489;BME280;21602;55.670;37.578;2022-08-11T10:47:56;100118.75;;;25.65;39.57
35489;BME280;21602;55.670;37.578;2022-08-11T10:50:22;100117.47;;;25.71;39.22
35489;BME280;21602;55.670;37.578;2022-08-11T10:53:08;100104.38;;;25.91;40.06
35489;BME280;21602;55.670;37.578;2022-08-11T10:55:53;100104.75;;;26.15;38.84
35489;BME280;21602;55.670;37.578;2022-08-11T10:58:39;100102.03;;;26.07;39.28
35489;BME280;21602;55.670;37.578;2022-08-11T11:01:28;100100.38;;;25.88;39.94
35489;BME280;21602;55.670;37.578;2022-08-11T11:04:06;100099.66;;;25.74;39.67
35489;BME280;21602;55.670;37.578;2022-08-11T11:07:04;100092.94;;;25.80;39.76
35489;BME280;21602;55.670;37.578;2022-08-11T11:09:47;100090.47;;;25.70;39.18
35489;BME280;21602;55.670;37.578;2022-08-11T11:12:26;100095.53;;;25.54;39.05
35489;BME280;21602;55.670;37.578;2022-08-11T11:15:15;100093.41;;;25.42;39.17
35489;BME280;21602;55.670;37.578;2022-08-11T11:18:07;100092.06;;;25.31;40.53
35489;BME280;21602;55.670;37.578;2022-08-11T11:23:21;100084.03;;;25.35;40.75
35489;BME280;21602;55.670;37.578;2022-08-11T11:25:59;100083.78;;;25.45;39.77
35489;BME280;21602;55.670;37.578;2022-08-11T11:36:59;100090.19;;;25.40;39.49
35489;BME280;21602;55.670;37.578;2022-08-11T11:39:30;100076.84;;;25.47;39.08
35489;BME280;21602;55.670;37.578;2022-08-11T11:42:00;100077.97;;;25.46;38.86
35489;BME280;21602;55.670;37.578;2022-08-11T11:44:28;100078.78;;;25.47;39.30
35489;BME280;21602;55.670;37.578;2022-08-11T11:46:54;100068.50;;;25.52;39.90
35489;BME280;21602;55.670;37.578;2022-08-11T11:49:26;100072.84;;;25.53;39.41
35489;BME280;21602;55.670;37.578;2022-08-11T11:51:53;100070.34;;;25.66;39.69
35489;BME280;21602;55.670;37.578;2022-08-11T11:54:24;100074.81;;;25.62;40.72
35489;BME280;21602;55.670;37.578;2022-08-11T11:56:55;100072.91;;;25.62;40.14
35489;BME280;21602;55.670;37.578;2022-08-11T11:59:24;100069.03;;;25.54;39.74
35489;BME280;21602;55.670;37.578;2022-08-11T12:02:12;100066.28;;;25.54;40.11
35489;BME280;21602;55.670;37.578;2022-08-11T12:04:44;100063.00;;;25.44;39.75
35489;BME280;21602;55.670;37.578;2022-08-11T12:07:12;100059.13;;;25.36;39.93
35489;BME280;21602;55.670;37.578;2022-08-11T12:09:57;100067.50;;;25.40;39.70
35489;BME280;21602;55.670;37.578;2022-08-11T12:12:24;100067.91;;;25.56;39.57
35489;BME280;21602;55.670;37.578;2022-08-11T12:15:09;100071.91;;;25.49;40.13
35489;BME280;21602;55.670;37.578;2022-08-11T12:17:36;100060.31;;;25.52;39.44
35489;BME280;21602;55.670;37.578;2022-08-11T12:20:03;100060.16;;;25.58;39.89
35489;BME280;21602;55.670;37.578;2022-08-11T12:22:30;100056.41;;;25.76;39.72
35489;BME280;21602;55.670;37.578;2022-08-11T12:25:16;100052.25;;;25.78;38.57
35489;BME280;21602;55.670;37.578;2022-08-11T12:28:01;100059.13;;;25.76;39.00
35489;BME280;21602;55.670;37.578;2022-08-11T12:30:27;100060.88;;;25.72;39.18
35489;BME280;21602;55.670;37.578;2022-08-11T12:32:56;100060.31;;;25.84;38.80
35489;BME280;21602;55.670;37.578;2022-08-11T12:35:22;100061.44;;;25.91;38.77
35489;BME280;21602;55.670;37.578;2022-08-11T12:37:51;100053.22;;;25.91;38.66
35489;BME280;21602;55.670;37.578;2022-08-11T12:40:23;100049.50;;;25.78;38.89
35489;BME280;21602;55.670;37.578;2022-08-11T12:43:13;100050.34;;;25.88;39.04
35489;BME280;21602;55.670;37.578;2022-08-11T12:46:01;100055.94;;;25.91;38.75
35489;BME280;21602;55.670;37.578;2022-08-11T12:48:33;100050.69;;;26.03;38.03
35489;BME280;21602;55.670;37.578;2022-08-11T12:51:23;100049.66;;;25.82;38.69
35489;BME280;21602;55.670;37.578;2022-08-11T12:54:13;100049.44;;;25.70;38.95
35489;BME280;21602;55.670;37.578;2022-08-11T12:56:44;100046.44;;;25.80;38.56
35489;BME280;21602;55.670;37.578;2022-08-11T12:59:29;100052.75;;;25.89;38.55
35489;BME280;21602;55.670;37.578;2022-08-11T13:02:16;100052.63;;;26.03;38.38
35489;BME280;21602;55.670;37.578;2022-08-11T13:05:06;100056.75;;;25.83;37.53
35489;BME280;21602;55.670;37.578;2022-08-11T13:07:33;100049.97;;;25.81;37.78
35489;BME280;21602;55.670;37.578;2022-08-11T13:10:04;100048.69;;;25.87;38.41
35489;BME280;21602;55.670;37.578;2022-08-11T13:12:32;100047.59;;;25.96;37.99
35489;BME280;21602;55.670;37.578;2022-08-11T13:15:23;100040.06;;;26.02;38.29
35489;BME280;21602;55.670;37.578;2022-08-11T13:17:51;100042.13;;;25.96;37.93
35489;BME280;21602;55.670;37.578;2022-08-11T13:20:21;100048.56;;;26.00;37.83
35489;BME280;21602;55.670;37.578;2022-08-11T13:22:49;100043.59;;;26.02;37.76
35489;BME280;21602;55.670;37.578;2022-08-11T13:25:17;100051.00;;;26.11;37.57
35489;BME280;21602;55.670;37.578;2022-08-11T13:27:46;100043.44;;;26.25;37.53
35489;BME280;21602;55.670;37.578;2022-08-11T13:30:14;100042.34;;;26.17;38.51
35489;BME280;21602;55.670;37.578;2022-08-11T13:33:00;100034.59;;;26.19;38.29
35489;BME280;21602;55.670;37.578;2022-08-11T13:35:30;100040.06;;;26.28;37.71
35489;BME280;21602;55.670;37.578;2022-08-11T13:37:57;100036.53;;;26.36;37.31
35489;BME280;21602;55.670;37.578;2022-08-11T13:40:26;100038.81;;;26.51;38.34
35489;BME280;21602;55.670;37.578;2022-08-11T13:42:53;100041.72;;;26.64;37.43
35489;BME280;21602;55.670;37.578;2022-08-11T13:45:22;100035.56;;;26.58;38.31
35489;BME280;21602;55.670;37.578;2022-08-11T13:47:50;100033.81;;;26.53;37.68
35489;BME280;21602;55.670;37.578;2022-08-11T13:50:17;100033.34;;;26.43;38.01
35489;BME280;21602;55.670;37.578;2022-08-11T13:52:44;100029.94;;;26.37;37.59
35489;BME280;21602;55.670;37.578;2022-08-11T13:55:11;100024.47;;;26.37;37.59
35489;BME280;21602;55.670;37.578;2022-08-11T13:57:52;100028.50;;;26.48;37.18
35489;BME280;21602;55.670;37.578;2022-08-11T14:00:19;100026.88;;;26.39;38.15
35489;BME280;21602;55.670;37.578;2022-08-11T14:02:48;100028.31;;;26.19;38.27
35489;BME280;21602;55.670;37.578;2022-08-11T14:05:19;100031.56;;;26.21;38.32
35489;BME280;21602;55.670;37.578;2022-08-11T14:07:58;100014.81;;;26.31;37.88
35489;BME280;21602;55.670;37.578;2022-08-11T14:10:27;100011.56;;;26.29;38.03
35489;BME280;21602;55.670;37.578;2022-08-11T14:13:06;100018.34;;;26.23;38.95
35489;BME280;21602;55.670;37.578;2022-08-11T14:15:51;100022.50;;;26.20;37.78
35489;BME280;21602;55.670;37.578;2022-08-11T14:18:21;100014.47;;;26.07;37.80
35489;BME280;21602;55.670;37.578;2022-08-11T14:20:56;100014.31;;;26.03;38.19
35489;BME280;21602;55.670;37.578;2022-08-11T14:23:43;100011.88;;;26.01;37.96
35489;BME280;21602;55.670;37.578;2022-08-11T14:26:12;100010.44;;;25.95;37.65
35489;BME280;21602;55.670;37.578;2022-08-11T14:28:50;100007.69;;;25.95;38.19
35489;BME280;21602;55.670;37.578;2022-08-11T14:31:23;100005.28;;;25.85;38.00
35489;BME280;21602;55.670;37.578;2022-08-11T14:33:52;100003.16;;;25.82;37.52
35489;BME280;21602;55.670;37.578;2022-08-11T14:36:21;100007.78;;;25.73;37.47
35489;BME280;21602;55.670;37.578;2022-08-11T14:38:48;100000.59;;;25.77;37.32
35489;BME280;21602;55.670;37.578;2022-08-11T14:41:14;99995.13;;;25.86;37.20
35489;BME280;21602;55.670;37.578;2022-08-11T14:44:00;99992.72;;;25.84;37.39
35489;BME280;21602;55.670;37.578;2022-08-11T14:46:44;99996.44;;;25.88;37.67
35489;BME280;21602;55.670;37.578;2022-08-11T14:49:34;99992.72;;;25.84;38.21
35489;BME280;21602;55.670;37.578;2022-08-11T14:52:03;99995.47;;;25.93;38.22
35489;BME280;21602;55.670;37.578;2022-08-11T14:54:31;99992.72;;;26.01;38.24
35489;BME280;21602;55.670;37.578;2022-08-11T14:57:16;99991.13;;;26.09;37.81
35489;BME280;21602;55.670;37.578;2022-08-11T14:59:45;99985.81;;;26.13;37.95
35489;BME280;21602;55.670;37.578;2022-08-11T15:02:13;99981.66;;;26.07;37.65
35489;BME280;21602;55.670;37.578;2022-08-11T15:05:00;99990.00;;;26.10;37.77
35489;BME280;21602;55.670;37.578;2022-08-11T15:07:30;99985.97;;;25.90;38.59
35489;BME280;21602;55.670;37.578;2022-08-11T15:09:58;99985.81;;;25.95;38.39
35489;BME280;21602;55.670;37.578;2022-08-11T15:12:24;99982.91;;;26.00;38.12
35489;BME280;21602;55.670;37.578;2022-08-11T15:14:50;99984.84;;;26.09;38.11
35489;BME280;21602;55.670;37.578;2022-08-11T15:17:35;99983.56;;;26.15;38.13
35489;BME280;21602;55.670;37.578;2022-08-11T15:20:03;99986.00;;;26.08;38.13
35489;BME280;21602;55.670;37.578;2022-08-11T15:22:49;99981.31;;;26.08;37.78
35489;BME280;21602;55.670;37.578;2022-08-11T15:25:34;99990.34;;;26.09;38.11
35489;BME280;21602;55.670;37.578;2022-08-11T15:28:02;99990.16;;;26.05;38.36
35489;BME280;21602;55.670;37.578;2022-08-11T15:30:52;99987.56;;;25.91;38.38
35489;BME280;21602;55.670;37.578;2022-08-11T15:33:38;99986.59;;;25.87;38.63
35489;BME280;21602;55.670;37.578;2022-08-11T15:36:23;99986.59;;;25.87;38.74
35489;BME280;21602;55.670;37.578;2022-08-11T15:39:18;99984.34;;;25.81;38.36
35489;BME280;21602;55.670;37.578;2022-08-11T15:41:53;99983.06;;;25.78;38.64
35489;BME280;21602;55.670;37.578;2022-08-11T15:44:42;99985.16;;;25.81;38.85
35489;BME280;21602;55.670;37.578;2022-08-11T15:47:36;99990.00;;;25.84;38.35
35489;BME280;21602;55.670;37.578;2022-08-11T15:50:04;99986.94;;;25.86;38.56
35489;BME280;21602;55.670;37.578;2022-08-11T15:52:34;99983.84;;;25.87;38.60
35489;BME280;21602;55.670;37.578;2022-08-11T15:55:07;99989.84;;;25.89;38.58
35489;BME280;21602;55.670;37.578;2022-08-11T15:57:34;99988.06;;;25.93;38.48
35489;BME280;21602;55.670;37.578;2022-08-11T16:00:20;99985.63;;;25.92;38.41
35489;BME280;21602;55.670;37.578;2022-08-11T16:03:05;99994.69;;;25.92;38.74
35489;BME280;21602;55.670;37.578;2022-08-11T16:05:51;99987.56;;;25.91;38.81
35489;BME280;21602;55.670;37.578;2022-08-11T16:08:20;99981.97;;;25.88;38.78
35489;BME280;21602;55.670;37.578;2022-08-11T16:10:52;99983.06;;;25.78;39.31
35489;BME280;21602;55.670;37.578;2022-08-11T16:13:21;99985.09;;;25.72;38.65
35489;BME280;21602;55.670;37.578;2022-08-11T16:15:50;99982.38;;;25.72;38.87
35489;BME280;21602;55.670;37.578;2022-08-11T16:18:55;99985.75;;;25.69;39.00
35489;BME280;21602;55.670;37.578;2022-08-11T16:21:43;99981.56;;;25.72;38.63
35489;BME280;21602;55.670;37.578;2022-08-11T16:24:11;99979.50;;;25.69;38.56
35489;BME280;21602;55.670;37.578;2022-08-11T16:26:45;99988.94;;;25.63;39.04
35489;BME280;21602;55.670;37.578;2022-08-11T16:29:11;99979.28;;;25.57;39.28
35489;BME280;21602;55.670;37.578;2022-08-11T16:31:39;99975.09;;;25.50;39.27
35489;BME280;21602;55.670;37.578;2022-08-11T16:34:10;99979.91;;;25.45;39.39
35489;BME280;21602;55.670;37.578;2022-08-11T16:36:57;99983.56;;;25.32;39.99
35489;BME280;21602;55.670;37.578;2022-08-11T16:39:42;99973.06;;;25.25;39.71
35489;BME280;21602;55.670;37.578;2022-08-11T16:42:11;99973.56;;;25.27;39.34
35489;BME280;21602;55.670;37.578;2022-08-11T16:44:57;99979.53;;;25.29;39.16
35489;BME280;21602;55.670;37.578;2022-08-11T16:47:47;99985.44;;;25.22;40.04
35489;BME280;21602;55.670;37.578;2022-08-11T16:50:14;99977.41;;;25.17;40.21
35489;BME280;21602;55.670;37.578;2022-08-11T16:52:40;99985.41;;;25.14;39.89
35489;BME280;21602;55.670;37.578;2022-08-11T16:55:08;99986.53;;;25.13;39.83
35489;BME280;21602;55.670;37.578;2022-08-11T16:57:34;99978.75;;;25.06;40.36
35489;BME280;21602;55.670;37.578;2022-08-11T17:00:21;99978.72;;;24.97;40.49
35489;BME280;21602;55.670;37.578;2022-08-11T17:02:51;99982.03;;;24.86;41.20
35489;BME280;21602;55.670;37.578;2022-08-11T17:05:41;99985.84;;;24.76;40.89
35489;BME280;21602;55.670;37.578;2022-08-11T17:08:41;99989.81;;;24.70;40.98
35489;BME280;21602;55.670;37.578;2022-08-11T17:11:32;99989.31;;;24.68;40.81
35489;BME280;21602;55.670;37.578;2022-08-11T17:14:25;99996.34;;;24.60;41.98
35489;BME280;21602;55.670;37.578;2022-08-11T17:16:56;99993.75;;;24.55;41.65
35489;BME280;21602;55.670;37.578;2022-08-11T17:19:30;99995.16;;;24.52;41.94
35489;BME280;21602;55.670;37.578;2022-08-11T17:21:58;99983.75;;;24.50;41.98